createdAt,value
2019-04-26T00:01:16.676Z,1.50
2019-04-26T00:03:47.108Z,1.40
2019-04-26T00:06:16.928Z,1.53
2019-04-26T00:08:51.080Z,1.30
2019-04-26T00:11:39.670Z,1.33
2019-04-26T00:14:58.766Z,1.30
2019-04-26T00:17:31.681Z,1.30
2019-04-26T00:20:00.961Z,1.17
2019-04-26T00:22:30.133Z,1.13
2019-04-26T00:24:59.363Z,0.97
2019-04-26T00:27:28.637Z,1.50
2019-04-26T00:29:57.847Z,1.57
2019-04-26T00:32:27.111Z,1.60
2019-04-26T00:34:56.329Z,1.40
2019-04-26T00:37:25.629Z,1.00
2019-04-26T00:39:54.842Z,1.33
2019-04-26T00:42:24.387Z,1.10
2019-04-26T00:44:53.696Z,1.17
2019-04-26T00:47:24.019Z,1.00
2019-04-26T00:49:53.349Z,0.93
2019-04-26T00:52:23.652Z,1.00
2019-04-26T00:54:53.155Z,1.03
2019-04-26T00:57:24.378Z,0.90
2019-04-26T00:59:54.369Z,1.20
2019-04-26T01:02:29.919Z,1.30
2019-04-26T01:04:59.080Z,1.40
2019-04-26T01:07:28.342Z,0.90
2019-04-26T01:09:57.489Z,1.10
2019-04-26T01:12:26.733Z,1.03
2019-04-26T01:14:55.958Z,1.50
2019-04-26T01:17:25.211Z,1.30
2019-04-26T01:19:56.794Z,0.90
2019-04-26T01:22:29.498Z,1.00
2019-04-26T01:25:00.609Z,1.00
2019-04-26T01:27:30.932Z,1.50
2019-04-26T01:30:03.709Z,1.10
2019-04-26T01:32:34.070Z,1.10
2019-04-26T01:35:03.310Z,1.40
2019-04-26T01:37:32.973Z,1.80
2019-04-26T01:40:07.849Z,1.47
2019-04-26T01:43:00.609Z,0.80
2019-04-26T01:45:35.762Z,0.90
2019-04-26T01:48:29.219Z,1.07
2019-04-26T01:50:59.799Z,0.97
2019-04-26T01:53:28.981Z,1.20
2019-04-26T01:55:58.319Z,1.30
2019-04-26T01:58:27.583Z,1.30
2019-04-26T02:01:11.445Z,1.07
2019-04-26T02:03:40.708Z,1.30
2019-04-26T02:06:09.851Z,1.10
2019-04-26T02:08:39.133Z,1.40
2019-04-26T02:11:08.450Z,1.60
2019-04-26T02:13:37.729Z,1.90
2019-04-26T02:16:06.940Z,1.30
2019-04-26T02:18:36.209Z,1.20
2019-04-26T02:21:20.878Z,0.97
2019-04-26T02:24:04.365Z,0.90
2019-04-26T02:26:43.750Z,1.13
2019-04-26T02:29:18.137Z,1.20
2019-04-26T02:31:52.870Z,1.10
2019-04-26T02:34:22.611Z,1.00
2019-04-26T02:36:58.382Z,1.00
2019-04-26T02:39:30.239Z,1.10
2019-04-26T02:42:04.082Z,1.07
2019-04-26T02:44:43.482Z,1.30
2019-04-26T02:47:35.007Z,1.10
2019-04-26T02:50:09.434Z,1.70
2019-04-26T02:52:48.453Z,1.00
2019-04-26T02:55:42.388Z,1.10
2019-04-26T02:58:12.345Z,1.10
2019-04-26T03:00:41.554Z,0.90
2019-04-26T03:03:12.882Z,1.50
2019-04-26T03:05:44.228Z,1.23
2019-04-26T03:08:17.800Z,1.30
2019-04-26T03:10:52.015Z,1.30
2019-04-26T03:13:46.744Z,1.30
2019-04-26T03:16:45.426Z,1.00
2019-04-26T03:19:49.258Z,1.50
2019-04-26T03:22:55.289Z,1.50
2019-04-26T03:25:36.520Z,1.60
2019-04-26T03:28:14.050Z,1.70
2019-04-26T03:30:59.857Z,1.60
2019-04-26T03:33:53.922Z,1.70
2019-04-26T03:36:44.193Z,1.93
2019-04-26T03:39:40.296Z,1.80
2019-04-26T03:42:59.462Z,1.77
2019-04-26T03:46:00.484Z,2.10
2019-04-26T03:49:22.725Z,1.97
2019-04-26T03:52:35.340Z,2.00
2019-04-26T03:55:08.383Z,2.10
2019-04-26T03:57:49.348Z,1.80
2019-04-26T04:00:43.361Z,2.10
2019-04-26T04:03:29.443Z,1.83
2019-04-26T04:06:01.224Z,1.70
2019-04-26T04:08:40.598Z,2.60
2019-04-26T04:11:13.347Z,2.03
2019-04-26T04:13:51.397Z,1.57
2019-04-26T04:16:50.717Z,2.07
2019-04-26T04:19:59.954Z,2.00
2019-04-26T04:22:32.986Z,1.80
2019-04-26T04:25:05.609Z,1.87
2019-04-26T04:27:50.530Z,2.10
2019-04-26T04:30:34.962Z,1.60
2019-04-26T04:33:49.585Z,1.70
2019-04-26T04:36:27.359Z,2.10
2019-04-26T04:39:13.522Z,1.50
2019-04-26T04:41:59.299Z,1.90
2019-04-26T04:45:05.333Z,2.20
2019-04-26T04:47:50.137Z,1.77
2019-04-26T04:50:35.779Z,2.20
2019-04-26T04:53:49.860Z,2.17
2019-04-26T04:56:44.163Z,2.20
2019-04-26T04:59:20.459Z,1.77
2019-04-26T05:02:32.451Z,1.83
2019-04-26T05:05:23.296Z,2.53
2019-04-26T05:08:18.233Z,2.10
2019-04-26T05:10:56.509Z,2.17
2019-04-26T05:13:40.234Z,2.20
2019-04-26T05:16:55.705Z,1.73
2019-04-26T05:20:04.190Z,1.70
2019-04-26T05:23:26.358Z,1.90
2019-04-26T05:27:05.625Z,1.10
2019-04-26T05:30:41.899Z,1.40
2019-04-26T05:33:46.140Z,1.10
2019-04-26T05:36:48.825Z,1.17
2019-04-26T05:43:12.893Z,1.40
2019-04-26T05:46:24.078Z,1.00
2019-04-26T05:49:47.525Z,0.97
2019-04-26T05:52:55.204Z,1.27
2019-04-26T05:56:10.208Z,1.27
2019-04-26T05:58:46.312Z,1.20
2019-04-26T06:02:19.614Z,1.30
2019-04-26T06:05:15.501Z,1.57
2019-04-26T06:08:30.589Z,1.07
2019-04-26T06:10:59.943Z,2.30
2019-04-26T06:14:31.085Z,1.13
2019-04-26T06:18:01.819Z,1.37
2019-04-26T06:20:44.919Z,0.97
2019-04-26T06:23:23.402Z,1.17
2019-04-26T06:26:30.117Z,1.00
2019-04-26T06:29:14.144Z,1.57
2019-04-26T06:31:51.250Z,1.20
2019-04-26T06:34:49.071Z,1.20
2019-04-26T06:37:33.098Z,1.13
2019-04-26T06:40:16.972Z,0.97
2019-04-26T06:43:17.042Z,1.30
2019-04-26T06:47:01.897Z,1.27
2019-04-26T06:50:18.154Z,1.33
2019-04-26T06:53:13.410Z,1.40
2019-04-26T06:56:00.984Z,1.43
2019-04-26T06:59:03.484Z,1.40
2019-04-26T07:01:39.199Z,1.30
2019-04-26T07:04:45.374Z,1.30
2019-04-26T07:07:45.744Z,1.60
2019-04-26T07:10:49.352Z,1.37
2019-04-26T07:13:53.129Z,1.60
2019-04-26T07:16:33.128Z,1.20
2019-04-26T07:19:30.200Z,1.47
2019-04-26T07:22:35.942Z,1.10
2019-04-26T07:25:37.575Z,1.50
2019-04-26T07:28:21.720Z,1.10
2019-04-26T07:31:08.302Z,1.13
2019-04-26T07:34:05.190Z,0.90
2019-04-26T07:37:11.325Z,0.90
2019-04-26T07:40:38.372Z,1.10
2019-04-26T07:43:48.119Z,1.10
2019-04-26T07:47:01.542Z,1.43
2019-04-26T07:50:34.113Z,1.20
2019-04-26T07:53:43.297Z,1.20
2019-04-26T07:56:41.671Z,2.30
2019-04-26T07:59:55.078Z,1.00
2019-04-26T08:02:47.323Z,0.80
2019-04-26T08:05:25.267Z,1.40
2019-04-26T08:07:58.289Z,1.30
2019-04-26T08:10:30.513Z,1.47
2019-04-26T08:13:07.870Z,1.60
2019-04-26T08:16:06.755Z,1.37
2019-04-26T08:18:42.750Z,0.93
2019-04-26T08:21:27.428Z,1.20
2019-04-26T08:24:07.905Z,1.07
2019-04-26T08:26:40.330Z,1.13
2019-04-26T08:29:12.677Z,1.10
2019-04-26T08:31:45.241Z,1.23
2019-04-26T08:34:20.662Z,1.10
2019-04-26T08:37:06.677Z,1.30
2019-04-26T08:39:45.586Z,1.13
2019-04-26T08:42:19.223Z,1.00
2019-04-26T08:44:51.604Z,0.93
2019-04-26T08:47:51.083Z,1.07
2019-04-26T08:50:28.561Z,1.00
2019-04-26T08:53:00.684Z,1.00
2019-04-26T08:55:32.265Z,0.70
2019-04-26T08:58:06.588Z,0.90
2019-04-26T09:00:47.626Z,0.80
2019-04-26T09:03:36.274Z,0.80
2019-04-26T09:06:22.605Z,1.17
2019-04-26T09:08:54.645Z,1.20
2019-04-26T09:11:30.366Z,1.20
2019-04-26T09:14:00.106Z,1.10
2019-04-26T09:16:29.440Z,0.77
2019-04-26T09:18:59.729Z,1.03
2019-04-26T09:21:51.815Z,1.40
2019-04-26T09:24:26.778Z,1.00
2019-04-26T09:27:17.043Z,0.90
2019-04-26T09:30:12.657Z,1.00
2019-04-26T09:32:52.269Z,0.70
2019-04-26T09:35:21.601Z,1.10
2019-04-26T09:37:50.850Z,0.80
2019-04-26T09:40:22.707Z,1.07
2019-04-26T09:42:59.683Z,1.20
2019-04-26T09:45:48.164Z,0.90
2019-04-26T09:48:33.254Z,1.23
2019-04-26T09:51:03.113Z,1.13
2019-04-26T09:53:32.410Z,1.20
2019-04-26T09:56:01.699Z,1.13
2019-04-26T09:58:32.184Z,1.00
2019-04-26T10:01:01.789Z,0.70
2019-04-26T10:03:31.039Z,0.87
2019-04-26T10:06:00.202Z,1.20
2019-04-26T10:08:29.425Z,0.90
2019-04-26T10:10:58.697Z,0.87
2019-04-26T10:13:45.132Z,1.17
2019-04-26T10:16:37.637Z,0.80
2019-04-26T10:19:09.270Z,1.10
2019-04-26T10:21:38.541Z,1.20
2019-04-26T10:24:08.484Z,0.90
2019-04-26T10:26:37.989Z,1.00
2019-04-26T10:29:07.389Z,1.20
2019-04-26T10:31:36.635Z,0.80
2019-04-26T10:34:07.669Z,0.90
2019-04-26T10:36:36.960Z,1.03
2019-04-26T10:39:09.099Z,0.80
2019-04-26T10:41:38.334Z,0.80
2019-04-26T10:44:07.595Z,0.80
2019-04-26T10:46:36.862Z,0.80
2019-04-26T10:49:40.499Z,0.90
2019-04-26T10:52:16.969Z,0.83
2019-04-26T10:54:49.035Z,0.80
2019-04-26T10:57:29.944Z,0.50
2019-04-26T11:00:02.135Z,0.67
2019-04-26T11:02:31.280Z,0.70
2019-04-26T11:05:00.530Z,1.00
2019-04-26T11:07:29.816Z,0.80
2019-04-26T11:09:59.049Z,0.70
2019-04-26T11:12:28.316Z,0.80
2019-04-26T11:14:58.215Z,0.60
2019-04-26T11:17:27.625Z,0.90
2019-04-26T11:19:56.929Z,0.80
2019-04-26T11:22:29.166Z,0.70
2019-04-26T11:24:57.342Z,0.80
2019-04-26T11:27:26.598Z,0.90
2019-04-26T11:30:00.058Z,0.77
2019-04-26T11:32:26.923Z,0.90
2019-04-26T11:34:58.799Z,0.83
2019-04-26T11:37:27.267Z,1.10
2019-04-26T11:39:56.722Z,0.80
2019-04-26T11:42:26.233Z,0.80
2019-04-26T11:45:05.718Z,0.80
2019-04-26T11:47:27.714Z,0.60
2019-04-26T11:49:57.015Z,0.80
2019-04-26T11:52:26.225Z,1.23
2019-04-26T11:54:56.253Z,0.50
2019-04-26T11:57:25.688Z,0.70
2019-04-26T11:59:54.930Z,0.80
2019-04-26T12:02:24.276Z,1.13
2019-04-26T12:05:12.481Z,1.00
2019-04-26T12:07:49.660Z,0.60
2019-04-26T12:10:18.931Z,1.00
2019-04-26T12:12:51.700Z,0.73
2019-04-26T12:15:29.753Z,0.70
2019-04-26T12:17:58.305Z,0.83
2019-04-26T12:20:22.432Z,0.60
2019-04-26T12:22:52.179Z,0.73
2019-04-26T12:25:21.414Z,0.60
2019-04-26T12:27:53.495Z,0.83
2019-04-26T12:30:24.945Z,0.73
2019-04-26T12:32:52.731Z,0.90
2019-04-26T12:35:22.054Z,1.00
2019-04-26T12:37:54.835Z,0.97
2019-04-26T12:40:22.311Z,1.03
2019-04-26T12:42:51.608Z,0.70
2019-04-26T12:45:38.206Z,0.80
2019-04-26T12:48:12.368Z,0.80
2019-04-26T12:50:40.406Z,0.70
2019-04-26T12:53:09.714Z,0.83
2019-04-26T12:55:45.025Z,1.20
2019-04-26T12:58:15.203Z,1.00
2019-04-26T13:00:53.873Z,0.70
2019-04-26T13:03:20.488Z,0.90
2019-04-26T13:05:49.812Z,0.80
2019-04-26T13:08:18.187Z,0.90
2019-04-26T13:11:14.938Z,1.00
2019-04-26T13:13:55.205Z,0.90
2019-04-26T13:16:42.005Z,0.80
2019-04-26T13:19:11.629Z,1.00
2019-04-26T13:21:40.867Z,0.87
2019-04-26T13:24:11.838Z,0.80
2019-04-26T13:26:41.126Z,1.00
2019-04-26T13:29:10.791Z,0.93
2019-04-26T13:31:40.135Z,0.80
2019-04-26T13:34:09.396Z,0.90
2019-04-26T13:36:38.750Z,0.90
2019-04-26T13:39:17.440Z,0.80
2019-04-26T13:41:44.491Z,0.93
2019-04-26T13:44:13.745Z,1.00
2019-04-26T13:47:03.624Z,1.03
2019-04-26T13:49:44.058Z,1.00
2019-04-26T13:52:13.334Z,1.20
2019-04-26T13:54:42.587Z,1.10
2019-04-26T13:57:11.922Z,1.30
2019-04-26T13:59:41.246Z,1.20
2019-04-26T14:02:11.891Z,1.57
2019-04-26T14:04:42.667Z,1.67
2019-04-26T14:07:12.404Z,1.90
2019-04-26T14:09:42.017Z,1.00
2019-04-26T14:12:18.800Z,1.10
2019-04-26T14:14:42.288Z,1.30
2019-04-26T14:17:11.707Z,1.10
2019-04-26T14:19:40.972Z,1.70
2019-04-26T14:22:10.599Z,1.17
2019-04-26T14:24:45.380Z,1.30
2019-04-26T14:27:17.602Z,1.20
2019-04-26T14:29:46.877Z,1.10
2019-04-26T14:32:16.170Z,1.47
2019-04-26T14:34:45.479Z,1.10
2019-04-26T14:37:15.668Z,1.20
2019-04-26T14:39:50.814Z,1.00
2019-04-26T14:42:16.728Z,0.90
2019-04-26T14:44:49.484Z,1.03
2019-04-26T14:47:18.129Z,1.27
2019-04-26T14:49:47.645Z,1.30
2019-04-26T14:52:16.898Z,1.20
2019-04-26T14:54:47.532Z,1.43
2019-04-26T14:57:22.539Z,1.17
2019-04-26T14:59:56.902Z,1.23
2019-04-26T15:02:55.789Z,1.37
2019-04-26T15:05:50.417Z,0.90
2019-04-26T15:08:19.694Z,1.03
2019-04-26T15:10:53.034Z,1.13
2019-04-26T15:13:20.969Z,0.83
2019-04-26T15:15:52.431Z,1.00
2019-04-26T15:18:22.469Z,1.10
2019-04-26T15:20:53.141Z,1.30
2019-04-26T15:23:23.823Z,1.10
2019-04-26T15:25:53.913Z,1.07
2019-04-26T15:28:23.494Z,0.80
2019-04-26T15:30:52.864Z,0.90
2019-04-26T15:33:22.422Z,1.60
2019-04-26T15:35:54.924Z,1.03
2019-04-26T15:38:24.405Z,1.20
2019-04-26T15:41:16.687Z,1.40
2019-04-26T15:44:12.016Z,1.00
2019-04-26T15:46:57.862Z,1.07
2019-04-26T15:49:36.741Z,1.10
2019-04-26T15:52:05.261Z,0.83
2019-04-26T15:54:34.445Z,0.90
2019-04-26T15:57:06.321Z,1.07
2019-04-26T15:59:34.895Z,0.90
2019-04-26T16:02:04.150Z,0.90
2019-04-26T16:04:33.388Z,0.93
2019-04-26T16:07:02.651Z,1.20
2019-04-26T16:09:32.597Z,1.10
2019-04-26T16:12:03.647Z,0.70
2019-04-26T16:14:36.671Z,1.00
2019-04-26T16:17:06.581Z,1.20
2019-04-26T16:19:35.273Z,0.83
2019-04-26T16:22:04.802Z,0.90
2019-04-26T16:24:34.651Z,1.00
2019-04-26T16:27:04.020Z,1.10
2019-04-26T16:30:04.833Z,1.17
2019-04-26T16:32:58.870Z,1.03
2019-04-26T16:35:28.241Z,0.70
2019-04-26T16:38:00.137Z,1.10
2019-04-26T16:40:29.987Z,1.20
2019-04-26T16:42:59.967Z,0.93
2019-04-26T16:45:29.398Z,0.83
2019-04-26T16:47:58.815Z,1.27
2019-04-26T16:50:31.579Z,0.80
2019-04-26T16:52:59.706Z,1.00
2019-04-26T16:55:29.228Z,1.03
2019-04-26T16:57:58.859Z,1.20
2019-04-26T17:00:48.177Z,0.90
2019-04-26T17:03:03.777Z,1.80
2019-04-26T17:05:45.521Z,1.23
2019-04-26T17:08:05.020Z,0.93
2019-04-26T17:10:33.779Z,1.00
2019-04-26T17:13:03.450Z,0.97
2019-04-26T17:15:34.543Z,0.97
2019-04-26T17:18:04.085Z,1.00
2019-04-26T17:20:34.058Z,1.20
2019-04-26T17:23:23.990Z,1.70
2019-04-26T17:26:29.192Z,1.00
2019-04-26T17:28:57.513Z,1.20
2019-04-26T17:31:26.977Z,1.20
2019-04-26T17:33:56.238Z,1.37
2019-04-26T17:36:25.506Z,1.30
2019-04-26T17:38:54.776Z,1.50
2019-04-26T17:41:24.022Z,1.10
2019-04-26T17:44:05.947Z,1.50
2019-04-26T17:46:24.266Z,1.23
2019-04-26T17:48:53.556Z,1.50
2019-04-26T17:51:23.369Z,1.73
2019-04-26T17:54:18.899Z,1.70
2019-04-26T17:56:26.084Z,1.60
2019-04-26T17:58:55.210Z,1.70
2019-04-26T18:01:42.180Z,1.83
2019-04-26T18:03:56.129Z,1.90
2019-04-26T18:06:29.785Z,1.77
2019-04-26T18:08:56.607Z,1.20
2019-04-26T18:11:25.910Z,2.53
2019-04-26T18:13:55.283Z,1.67
2019-04-26T18:16:29.228Z,1.50
2019-04-26T18:19:17.369Z,1.53
2019-04-26T18:22:03.829Z,1.33
2019-04-26T18:24:34.961Z,2.37
2019-04-26T18:27:04.221Z,1.87
2019-04-26T18:29:33.755Z,1.80
2019-04-26T18:32:04.521Z,2.10
2019-04-26T18:34:37.183Z,2.50
2019-04-26T18:37:07.325Z,1.97
2019-04-26T18:39:36.047Z,1.70
2019-04-26T18:42:06.028Z,2.07
2019-04-26T18:44:38.514Z,1.60
2019-04-26T18:47:25.676Z,1.87
2019-04-26T18:49:57.985Z,1.90
2019-04-26T18:52:26.049Z,1.60
2019-04-26T18:55:03.870Z,1.57
2019-04-26T18:57:33.498Z,1.90
2019-04-26T19:00:04.128Z,1.50
2019-04-26T19:02:34.980Z,1.57
2019-04-26T19:05:04.523Z,1.33
2019-04-26T19:07:33.835Z,1.50
2019-04-26T19:10:05.336Z,2.03
2019-04-26T19:12:34.205Z,1.90
2019-04-26T19:15:17.316Z,1.80
2019-04-26T19:17:53.957Z,2.40
2019-04-26T19:20:45.260Z,2.47
2019-04-26T19:23:14.574Z,2.20
2019-04-26T19:25:43.871Z,2.73
2019-04-26T19:28:13.172Z,2.50
2019-04-26T19:30:48.916Z,2.27
2019-04-26T19:33:16.862Z,2.20
2019-04-26T19:35:47.373Z,2.20
2019-04-26T19:38:15.706Z,2.43
2019-04-26T19:40:47.836Z,2.50
2019-04-26T19:43:28.265Z,2.20
2019-04-26T19:46:01.502Z,2.00
2019-04-26T19:48:56.687Z,1.73
2019-04-26T19:51:43.768Z,2.13
2019-04-26T19:54:41.783Z,2.43
2019-04-26T19:57:17.346Z,2.13
2019-04-26T19:59:47.055Z,1.73
2019-04-26T20:02:16.679Z,1.90
2019-04-26T20:04:46.238Z,2.50
2019-04-26T20:07:15.923Z,2.30
2019-04-26T20:09:45.706Z,2.03
2019-04-26T20:12:15.290Z,1.90
2019-04-26T20:14:50.689Z,1.60
2019-04-26T20:17:19.742Z,2.03
2019-04-26T20:19:47.767Z,1.90
2019-04-26T20:22:22.139Z,2.00
2019-04-26T20:24:55.967Z,2.50
2019-04-26T20:27:23.786Z,1.80
2019-04-26T20:29:51.664Z,2.30
2019-04-26T20:32:42.613Z,1.93
2019-04-26T20:35:19.665Z,2.30
2019-04-26T20:37:48.544Z,1.90
2019-04-26T20:40:22.490Z,1.97
2019-04-26T20:42:48.936Z,2.10
2019-04-26T20:45:18.236Z,2.23
2019-04-26T20:47:53.749Z,2.23
2019-04-26T20:50:18.582Z,2.40
2019-04-26T20:52:47.886Z,1.70
2019-04-26T20:55:17.591Z,1.63
2019-04-26T20:57:46.960Z,1.73
2019-04-26T21:00:17.840Z,2.13
2019-04-26T21:02:47.163Z,2.10
2019-04-26T21:05:16.505Z,1.83
2019-04-26T21:07:49.519Z,1.80
2019-04-26T21:10:21.941Z,1.80
2019-04-26T21:12:52.218Z,2.07
2019-04-26T21:15:20.304Z,2.40
2019-04-26T21:17:51.761Z,2.47
2019-04-26T21:20:21.611Z,1.83
2019-04-26T21:22:52.387Z,2.40
2019-04-26T21:25:46.552Z,2.37
2019-04-26T21:28:27.544Z,2.77
2019-04-26T21:31:15.754Z,2.03
2019-04-26T21:33:53.535Z,2.30
2019-04-26T21:36:43.704Z,2.30
2019-04-26T21:39:30.293Z,2.40
2019-04-26T21:42:00.168Z,2.30
2019-04-26T21:44:29.412Z,2.33
2019-04-26T21:46:59.713Z,2.40
2019-04-26T21:49:29.077Z,2.20
2019-04-26T21:51:58.400Z,1.93
2019-04-26T21:54:27.662Z,2.10
2019-04-26T21:56:56.940Z,2.27
2019-04-26T21:59:26.152Z,1.90
2019-04-26T22:01:59.219Z,2.30
2019-04-26T22:04:28.900Z,2.33
2019-04-26T22:06:59.974Z,2.17
2019-04-26T22:09:43.070Z,2.33
2019-04-26T22:12:14.744Z,2.17
2019-04-26T22:14:50.741Z,2.50
2019-04-26T22:17:24.293Z,1.80
2019-04-26T22:20:15.637Z,1.90
2019-04-26T22:23:00.008Z,1.73
2019-04-26T22:25:33.084Z,2.03
2019-04-26T22:28:03.364Z,2.00
2019-04-26T22:30:35.605Z,1.80
2019-04-26T22:33:04.877Z,1.57
2019-04-26T22:35:34.232Z,1.90
2019-04-26T22:38:04.034Z,1.90
2019-04-26T22:40:35.514Z,1.87
2019-04-26T22:43:22.940Z,1.87
2019-04-26T22:46:14.235Z,1.70
2019-04-26T22:48:45.584Z,1.80
2019-04-26T22:51:14.904Z,1.80
2019-04-26T22:53:44.238Z,1.60
2019-04-26T22:56:13.521Z,1.87
2019-04-26T22:58:44.123Z,1.40
2019-04-26T23:01:13.490Z,1.50
2019-04-26T23:03:46.300Z,1.50
2019-04-26T23:06:15.400Z,2.00
2019-04-26T23:08:44.677Z,2.20
2019-04-26T23:11:13.876Z,1.77
2019-04-26T23:13:50.047Z,1.93
2019-04-26T23:16:44.681Z,1.77
2019-04-26T23:19:43.600Z,1.93
2019-04-26T23:22:13.084Z,1.80
2019-04-26T23:24:44.918Z,2.03
2019-04-26T23:27:20.570Z,2.03
2019-04-26T23:29:49.932Z,1.43
2019-04-26T23:32:20.153Z,1.53
2019-04-26T23:34:49.556Z,1.93
2019-04-26T23:37:19.352Z,1.60
2019-04-26T23:39:51.118Z,1.67
2019-04-26T23:42:20.418Z,1.27
2019-04-26T23:44:49.734Z,1.53
2019-04-26T23:47:22.997Z,1.90
2019-04-26T23:49:53.874Z,2.00
2019-04-26T23:52:24.305Z,1.67
2019-04-26T23:54:53.057Z,1.97
2019-04-26T23:57:22.325Z,1.60
2019-04-26T23:59:58.626Z,1.23
